Airfield :
LOGIN :

Register | Disclaimer

   EN    FR    IT 

 










Legend :    VFR   Marginal VFR   IFR   Intensive IFR   Very Intensive IFR
Visi :
Ceiling :
>= 8 km
>= 3000ft
5 to 8 km
1000 to 3000 ft
1500m to 5 km
500 to 1000 ft
800 to 1500m
200 to 500 ft
< 800m
< 200 ft
Symbols :   Thunderstorms  Fog  Heavy snow  Heavy precipitations  Wind > 20 kt
SIGMETs :     Misc.  Thunderstorms  Icing  Turbulence  Mountain Waves  Volcanic Ashes






- Airport Elevation : 2945 ft
- IATA code : RGS


LEBG - Burgos

CURRENT METAR :
  • 170400Z AUTO 02003KT 7000 FEW013 OVC019 06/06 Q1019

EXPIRED METARs :
  • 170330Z AUTO 00000KT 7000 SCT003 OVC010 07/07 Q1019
  • 170300Z AUTO VRB02KT 9000 4100NE BKN002 07/06 Q1019
  • 170230Z AUTO VRB02KT 1800 BR VV003 07/07 Q1018
  • 170200Z AUTO 16003KT 0550 0400NE R22/1000U R04/0600N FG VV002 07/06 Q1018
  • 170130Z AUTO VRB02KT 0400 0300SW R22/1100D R04/0250D FG VV002 07/07 Q1018

TAF TAF LEBG
Valid from the 17 at 03:00 until the 18 at 03:00 UTC


170200Z 1703/1803 VRB05KT 9999 SCT040 TX18/1715Z TN08/1705Z
TEMPO 1703/1708 04010KT
TEMPO 1703/1709 BKN004
TEMPO 1703/1708 0300 FG VV002
BECMG 1717/1719 04010KT



MET'MAP, your aeronautical weather chart ! - Copyright ORBIFLY December 2007 - Disclaimer

ORBIFLY MET'MAP TEAM :

Programming & Development : Alexandra Zaïnal
Concept & original design : Baudouin d'Aumeries
Assistance for programming : Marc-Olivier Méhu
Technical & hardware support : Manuel Goepfert

Contact : metmap@orbifly.com




SOURCES & CREDITS :

   NOAA